Time;durP1;ratioP1;P1;durP2;ratioP2;P2;SDS_P1;SDS_P2;PMS_P1;PMS_P2;Temp;Humidity;BMP_temperature;BMP_pressure;BME280_temperature;BME280_humidity;BME280_pressure;Samples;Min_cycle;Max_cycle;Signal;HPM_P1;HPM_P2
2022/01/10 00:01:59;;;;;;;10.68;8.55;;;21.70;31.50;;;;;;5050593;28;20439;-50
2022/01/10 00:04:25;;;;;;;11.82;9.18;;;21.70;31.50;;;;;;5026761;28;20064;-50
2022/01/10 00:06:51;;;;;;;10.35;8.23;;;21.70;31.50;;;;;;5040373;28;20033;-47
2022/01/10 00:09:16;;;;;;;12.50;8.77;;;21.70;31.40;;;;;;5040697;28;20032;-48
2022/01/10 00:11:42;;;;;;;11.57;8.00;;;21.70;31.40;;;;;;5040421;28;20769;-50
2022/01/10 00:14:08;;;;;;;10.70;7.63;;;21.60;31.30;;;;;;5045816;28;20041;-48
2022/01/10 00:16:34;;;;;;;9.68;7.43;;;21.60;31.30;;;;;;5024116;28;20013;-51
2022/01/10 00:18:59;;;;;;;9.45;7.05;;;21.60;31.30;;;;;;5045275;28;20108;-49
2022/01/10 00:21:25;;;;;;;9.55;7.57;;;21.60;31.20;;;;;;5043893;28;20014;-47
2022/01/10 00:23:51;;;;;;;9.35;7.25;;;21.60;31.20;;;;;;5043769;28;20452;-50
2022/01/10 00:26:17;;;;;;;10.73;7.75;;;21.60;31.20;;;;;;5039370;28;20020;-51
2022/01/10 00:28:42;;;;;;;8.93;7.00;;;21.60;31.20;;;;;;5029241;28;20029;-53
2022/01/10 00:31:09;;;;;;;9.65;6.50;;;21.60;31.10;;;;;;5041648;28;20028;-54
2022/01/10 00:33:34;;;;;;;8.00;6.13;;;21.60;31.10;;;;;;5053831;28;20044;-52
2022/01/10 00:36:00;;;;;;;7.93;6.00;;;21.50;31.10;;;;;;5038224;28;20511;-53
2022/01/10 00:38:26;;;;;;;10.35;6.65;;;21.60;31.10;;;;;;5035677;28;20448;-50
2022/01/10 00:40:53;;;;;;;9.20;6.65;;;21.50;31.00;;;;;;5046386;28;20029;-50
2022/01/10 00:43:30;;;;;;;9.20;6.57;;;21.50;31.00;;;;;;5051659;28;20114;-52
2022/01/10 00:45:56;;;;;;;7.47;6.22;;;21.50;31.30;;;;;;5051370;28;20413;-50
2022/01/10 00:48:22;;;;;;;7.40;5.65;;;21.50;31.00;;;;;;5035196;28;20053;-49
2022/01/10 00:50:47;;;;;;;7.25;5.35;;;21.50;31.00;;;;;;5010509;28;20073;-48
2022/01/10 00:53:13;;;;;;;7.63;5.82;;;21.50;31.00;;;;;;5035690;28;20018;-50
2022/01/10 00:55:39;;;;;;;8.30;6.00;;;21.50;30.90;;;;;;5052435;28;20062;-49
2022/01/10 00:58:05;;;;;;;7.63;5.45;;;21.50;30.90;;;;;;5049320;28;20187;-54
2022/01/10 01:00:30;;;;;;;8.73;5.90;;;21.40;30.90;;;;;;5046930;28;20124;-53
2022/01/10 01:02:58;;;;;;;6.82;5.13;;;21.40;30.90;;;;;;5035444;28;20041;-50
2022/01/10 01:05:26;;;;;;;7.05;5.38;;;21.40;30.90;;;;;;5049325;28;20309;-45
2022/01/10 01:07:52;;;;;;;7.13;5.25;;;21.50;30.90;;;;;;5052766;28;20029;-50
2022/01/10 01:12:59;;;;;;;7.07;4.35;;;21.40;30.80;;;;;;5051709;28;20607;-49
2022/01/10 01:15:33;;;;;;;6.57;4.85;;;21.40;30.80;;;;;;5040211;28;20345;-51
2022/01/10 01:25:53;;;;;;;6.70;4.40;;;21.40;30.70;;;;;;5043561;28;20112;-49
2022/01/10 01:28:18;;;;;;;6.90;4.95;;;21.40;30.80;;;;;;5020043;28;20387;-47
2022/01/10 01:30:44;;;;;;;6.00;4.45;;;21.40;30.80;;;;;;5041086;28;20021;-46
2022/01/10 01:33:13;;;;;;;5.85;4.72;;;21.40;30.70;;;;;;5031044;28;20026;-48
2022/01/10 01:35:39;;;;;;;7.63;4.95;;;21.30;30.70;;;;;;5041967;28;20035;-51
2022/01/10 01:38:07;;;;;;;5.43;3.83;;;21.40;30.70;;;;;;5043456;28;20045;-50
2022/01/10 01:40:34;;;;;;;5.97;4.18;;;21.30;30.60;;;;;;5027476;28;20020;-48
2022/01/10 01:43:00;;;;;;;7.15;4.50;;;21.30;30.60;;;;;;5034741;28;20048;-49
2022/01/10 01:45:40;;;;;;;5.65;4.03;;;21.30;30.60;;;;;;5027292;28;20013;-47
2022/01/10 01:48:08;;;;;;;4.88;3.70;;;21.40;31.30;;;;;;5018470;28;20134;-50
2022/01/10 01:50:35;;;;;;;5.53;3.70;;;21.30;30.60;;;;;;5025074;28;20091;-47
2022/01/10 01:53:01;;;;;;;6.15;4.25;;;21.30;30.60;;;;;;5026827;28;20038;-49
2022/01/10 01:55:27;;;;;;;6.03;4.28;;;21.30;30.60;;;;;;5018663;28;20373;-51
2022/01/10 01:57:54;;;;;;;5.35;3.83;;;21.30;30.70;;;;;;5029567;28;20075;-56
2022/01/10 02:00:22;;;;;;;5.13;3.85;;;21.30;30.70;;;;;;5020161;28;20025;-48
2022/01/10 02:02:51;;;;;;;5.55;3.92;;;21.30;30.70;;;;;;5019906;28;20332;-49
2022/01/10 02:05:18;;;;;;;6.13;3.70;;;21.30;30.60;;;;;;5035024;28;20479;-48
2022/01/10 02:07:45;;;;;;;6.18;3.70;;;21.20;30.60;;;;;;5031045;28;20035;-48
2022/01/10 02:10:12;;;;;;;5.45;3.63;;;21.30;30.60;;;;;;5031855;28;20024;-50
2022/01/10 02:12:38;;;;;;;5.68;4.10;;;21.20;30.60;;;;;;5034203;28;20029;-47
2022/01/10 02:15:32;;;;;;;4.72;3.70;;;21.30;30.60;;;;;;5026145;28;20032;-51
2022/01/10 02:18:01;;;;;;;5.25;3.45;;;21.30;30.50;;;;;;5033985;28;20021;-50
2022/01/10 02:20:33;;;;;;;6.25;3.72;;;21.30;30.60;;;;;;5033811;28;20033;-48
2022/01/10 02:22:59;;;;;;;5.40;3.38;;;21.30;30.60;;;;;;5027097;28;20033;-52
2022/01/10 02:25:45;;;;;;;5.35;3.53;;;21.20;30.50;;;;;;5049226;28;20491;-48
2022/01/10 02:28:13;;;;;;;5.22;3.40;;;21.20;30.50;;;;;;5033909;28;20013;-51
2022/01/10 02:30:40;;;;;;;6.45;3.83;;;21.20;30.50;;;;;;5050503;28;20063;-51
2022/01/10 02:33:06;;;;;;;5.15;3.60;;;21.20;30.40;;;;;;5051485;28;20029;-50
2022/01/10 02:35:45;;;;;;;4.85;3.30;;;21.20;30.40;;;;;;5050852;28;20036;-48
2022/01/10 02:38:11;;;;;;;4.65;3.17;;;21.20;30.40;;;;;;5022834;28;20033;-53
2022/01/10 02:40:37;;;;;;;5.13;3.47;;;21.20;30.40;;;;;;5019000;28;20082;-50
2022/01/10 02:43:07;;;;;;;5.32;3.42;;;21.20;30.40;;;;;;5018603;28;20037;-50
2022/01/10 02:45:33;;;;;;;4.38;3.00;;;21.20;30.40;;;;;;5028277;28;20021;-48
2022/01/10 02:47:59;;;;;;;4.72;3.20;;;21.20;30.40;;;;;;5028822;28;20029;-52
2022/01/10 02:50:25;;;;;;;5.32;2.97;;;21.20;30.40;;;;;;5020428;28;20028;-53
2022/01/10 02:52:51;;;;;;;5.88;3.22;;;21.20;30.40;;;;;;5020398;28;20429;-50
2022/01/10 02:55:18;;;;;;;4.75;2.95;;;21.20;30.50;;;;;;5020575;28;20055;-50
2022/01/10 02:57:44;;;;;;;5.32;3.53;;;21.20;30.40;;;;;;5021029;28;20104;-48
2022/01/10 03:00:17;;;;;;;4.72;3.00;;;21.20;30.40;;;;;;5028573;28;20095;-54
2022/01/10 03:02:44;;;;;;;5.70;3.30;;;21.20;30.50;;;;;;5020813;28;20107;-48
2022/01/10 03:05:11;;;;;;;5.07;2.95;;;21.10;30.40;;;;;;5020234;28;20025;-52
2022/01/10 03:07:37;;;;;;;4.93;3.10;;;21.20;30.40;;;;;;5033942;28;20017;-53
2022/01/10 03:10:05;;;;;;;5.53;3.28;;;21.10;30.30;;;;;;5029366;28;20364;-50
2022/01/10 03:12:32;;;;;;;5.40;3.22;;;21.10;30.40;;;;;;5031284;28;20017;-48
2022/01/10 03:14:58;;;;;;;5.30;3.35;;;21.20;30.40;;;;;;5026055;28;20398;-49
2022/01/10 03:17:26;;;;;;;4.78;2.88;;;21.10;30.30;;;;;;5021754;28;20075;-47
2022/01/10 03:19:52;;;;;;;4.40;2.80;;;21.10;30.30;;;;;;5034308;28;20024;-53
2022/01/10 03:22:18;;;;;;;4.72;3.05;;;21.10;30.30;;;;;;5020031;28;20025;-51
2022/01/10 03:24:44;;;;;;;4.47;2.88;;;21.10;30.30;;;;;;5022420;28;20056;-54
2022/01/10 03:27:10;;;;;;;5.85;3.35;;;21.10;30.30;;;;;;5034854;28;20037;-51
2022/01/10 03:29:36;;;;;;;4.03;2.63;;;21.10;30.30;;;;;;5041318;28;20356;-51
2022/01/10 03:32:02;;;;;;;4.82;3.08;;;21.10;30.30;;;;;;5026636;28;20053;-47
2022/01/10 03:34:29;;;;;;;4.25;2.67;;;21.10;30.30;;;;;;5037286;28;20075;-48
2022/01/10 03:36:55;;;;;;;4.35;2.67;;;21.10;30.30;;;;;;5026607;28;20125;-54
2022/01/10 03:39:23;;;;;;;4.03;2.78;;;21.10;30.30;;;;;;5019654;28;20109;-53
2022/01/10 03:41:49;;;;;;;4.05;3.22;;;21.10;30.30;;;;;;5030920;28;20033;-50
2022/01/10 03:44:15;;;;;;;4.18;2.72;;;21.10;30.30;;;;;;5022082;28;20039;-47
2022/01/10 03:46:41;;;;;;;3.78;2.63;;;21.00;30.30;;;;;;5029968;28;20056;-52
2022/01/10 03:49:08;;;;;;;4.85;3.00;;;21.00;30.30;;;;;;5019672;28;20108;-53
2022/01/10 03:51:34;;;;;;;4.22;2.80;;;21.00;30.30;;;;;;5025845;28;20482;-49
2022/01/10 03:54:00;;;;;;;4.90;2.90;;;21.00;30.30;;;;;;5036958;28;20059;-51
2022/01/10 03:56:30;;;;;;;5.13;2.90;;;21.00;30.30;;;;;;5041664;28;20103;-48
2022/01/10 03:58:57;;;;;;;5.07;2.58;;;21.00;30.30;;;;;;5031540;28;20036;-49
2022/01/10 04:01:23;;;;;;;4.72;2.95;;;21.00;30.30;;;;;;5043009;28;20384;-52
2022/01/10 04:03:54;;;;;;;4.97;2.80;;;21.00;30.30;;;;;;5019047;28;20087;-51
2022/01/10 04:06:20;;;;;;;6.75;2.92;;;21.00;30.30;;;;;;5021219;28;20120;-47
2022/01/10 04:08:46;;;;;;;4.88;2.78;;;21.00;30.30;;;;;;5019012;28;20022;-54
2022/01/10 04:11:12;;;;;;;4.50;2.50;;;21.00;30.30;;;;;;5040385;28;20346;-48
2022/01/10 04:13:40;;;;;;;4.35;2.63;;;21.00;30.30;;;;;;5020048;28;20104;-52
2022/01/10 04:16:07;;;;;;;4.85;2.80;;;21.00;30.30;;;;;;5006768;28;20050;-49
2022/01/10 04:18:33;;;;;;;3.97;2.60;;;21.00;30.30;;;;;;5021331;28;20025;-55
2022/01/10 04:20:59;;;;;;;5.00;2.67;;;21.00;30.30;;;;;;5036896;28;20468;-46
2022/01/10 04:23:25;;;;;;;3.83;2.50;;;20.90;30.20;;;;;;5035946;28;20028;-48
2022/01/10 04:25:51;;;;;;;3.95;2.50;;;21.00;30.30;;;;;;5047318;28;20056;-49
2022/01/10 04:28:18;;;;;;;3.97;2.13;;;20.90;30.20;;;;;;5026835;28;20032;-47
2022/01/10 04:30:44;;;;;;;3.58;2.30;;;21.00;30.30;;;;;;5043483;28;20036;-48
2022/01/10 04:33:16;;;;;;;3.47;2.33;;;20.90;30.20;;;;;;5020024;28;20441;-49
2022/01/10 04:35:42;;;;;;;3.88;2.28;;;20.90;30.20;;;;;;5032295;28;20025;-53
2022/01/10 04:38:09;;;;;;;3.88;2.30;;;20.90;30.30;;;;;;5016741;28;20167;-52
2022/01/10 04:40:36;;;;;;;4.25;2.72;;;20.90;30.20;;;;;;5023650;28;20045;-52
2022/01/10 04:43:02;;;;;;;4.00;2.47;;;20.90;30.30;;;;;;5030479;28;20029;-47
2022/01/10 04:45:28;;;;;;;3.40;2.30;;;20.90;30.20;;;;;;5030585;28;20025;-52
2022/01/10 04:47:56;;;;;;;3.63;2.53;;;20.90;30.30;;;;;;5029910;28;20017;-53
2022/01/10 04:53:11;;;;;;;4.90;2.53;;;20.90;30.30;;;;;;4980726;28;20580;-53
2022/01/10 04:55:37;;;;;;;3.95;2.50;;;20.90;30.30;;;;;;5013195;28;20116;-50
2022/01/10 04:58:03;;;;;;;4.18;2.50;;;20.90;30.30;;;;;;5005303;28;20049;-54
2022/01/10 05:00:28;;;;;;;3.55;2.30;;;20.90;30.30;;;;;;5005020;28;20018;-50
2022/01/10 05:02:54;;;;;;;4.32;2.42;;;20.90;30.40;;;;;;5008593;28;20084;-52
2022/01/10 05:05:20;;;;;;;3.47;2.08;;;20.90;30.40;;;;;;5009690;28;20046;-49
2022/01/10 05:07:46;;;;;;;4.82;2.40;;;20.80;30.30;;;;;;5004594;28;20025;-48
2022/01/10 05:10:13;;;;;;;3.35;2.25;;;20.90;30.40;;;;;;5001412;28;20101;-52
2022/01/10 05:12:41;;;;;;;3.80;2.53;;;20.80;30.30;;;;;;4999797;28;20022;-49
2022/01/10 05:15:07;;;;;;;3.95;2.28;;;20.80;30.30;;;;;;4995913;28;20610;-49
2022/01/10 05:17:33;;;;;;;3.92;2.50;;;20.80;30.30;;;;;;5003907;28;20467;-50
2022/01/10 05:19:59;;;;;;;4.00;2.60;;;20.80;30.30;;;;;;5000311;28;20022;-54
2022/01/10 05:22:25;;;;;;;3.17;2.30;;;20.80;30.30;;;;;;4998545;28;20047;-46
2022/01/10 05:24:51;;;;;;;4.25;2.42;;;20.80;30.30;;;;;;5010206;28;20033;-48
2022/01/10 05:27:17;;;;;;;3.83;2.08;;;20.80;30.30;;;;;;5000608;28;20029;-47
2022/01/10 05:29:42;;;;;;;3.20;2.40;;;20.80;30.30;;;;;;5009078;28;20085;-47
2022/01/10 05:32:10;;;;;;;5.57;2.53;;;20.80;30.40;;;;;;4995202;28;20060;-50
2022/01/10 05:34:49;;;;;;;3.90;2.53;;;20.80;30.40;;;;;;5006073;28;20022;-47
2022/01/10 05:37:14;;;;;;;3.65;2.13;;;20.80;30.40;;;;;;4994521;28;20148;-49
2022/01/10 05:39:40;;;;;;;3.45;2.40;;;20.80;30.40;;;;;;5007682;28;20109;-53
2022/01/10 05:42:06;;;;;;;5.13;2.47;;;20.70;30.40;;;;;;4997109;28;20022;-46
2022/01/10 05:44:32;;;;;;;3.17;1.98;;;20.80;30.40;;;;;;5013034;28;20026;-48
2022/01/10 05:47:00;;;;;;;3.80;2.40;;;20.70;30.30;;;;;;4996849;28;20026;-53
2022/01/10 05:49:32;;;;;;;4.13;2.30;;;20.70;30.30;;;;;;5003278;28;20080;-50
2022/01/10 05:51:59;;;;;;;3.40;2.15;;;20.70;30.30;;;;;;5006688;28;20137;-51
2022/01/10 05:54:32;;;;;;;3.85;2.33;;;20.80;30.40;;;;;;5010996;28;20068;-48
2022/01/10 05:56:58;;;;;;;3.40;2.03;;;20.70;30.40;;;;;;5007942;28;20050;-48
2022/01/10 05:59:27;;;;;;;4.22;2.25;;;20.70;30.40;;;;;;5005881;28;20446;-52
2022/01/10 06:01:53;;;;;;;2.95;1.90;;;20.80;30.40;;;;;;5005906;28;20441;-47
2022/01/10 06:04:22;;;;;;;2.55;1.92;;;20.70;30.40;;;;;;4995714;28;20038;-46
2022/01/10 06:06:48;;;;;;;3.35;2.05;;;20.70;30.40;;;;;;4995763;28;20080;-47
2022/01/10 06:09:15;;;;;;;3.60;2.28;;;20.70;30.40;;;;;;5003736;28;20018;-53
2022/01/10 06:11:42;;;;;;;3.80;2.00;;;20.70;30.40;;;;;;4999285;28;20184;-48
2022/01/10 06:14:11;;;;;;;4.40;2.22;;;20.70;30.40;;;;;;4998102;28;20030;-51
2022/01/10 06:16:37;;;;;;;3.60;2.25;;;20.70;30.40;;;;;;4994608;28;20035;-47
2022/01/10 06:19:03;;;;;;;3.10;2.15;;;20.70;30.40;;;;;;5004835;28;20026;-54
2022/01/10 06:21:30;;;;;;;4.30;2.50;;;20.70;30.50;;;;;;4999105;28;20429;-49
2022/01/10 06:23:57;;;;;;;3.30;2.20;;;20.70;30.50;;;;;;5017497;28;20053;-46
2022/01/10 06:26:23;;;;;;;3.47;2.33;;;20.70;30.50;;;;;;4996838;28;20461;-46
2022/01/10 06:28:49;;;;;;;3.45;1.92;;;20.70;30.50;;;;;;5002890;28;20022;-49
2022/01/10 06:31:15;;;;;;;4.20;2.28;;;20.70;30.50;;;;;;5008631;28;20030;-49
2022/01/10 06:33:52;;;;;;;3.60;2.20;;;20.70;30.50;;;;;;5008581;28;20023;-51
2022/01/10 06:36:18;;;;;;;3.08;1.92;;;20.60;30.50;;;;;;5012775;28;20025;-54
2022/01/10 06:38:47;;;;;;;3.17;2.20;;;20.70;30.60;;;;;;4997291;28;20038;-47
2022/01/10 06:41:14;;;;;;;3.65;2.05;;;20.60;30.50;;;;;;4999569;28;20041;-49
2022/01/10 06:43:40;;;;;;;3.95;2.05;;;20.60;30.50;;;;;;4997975;28;20066;-52
2022/01/10 06:46:09;;;;;;;3.55;2.20;;;20.70;30.50;;;;;;5008494;28;20104;-50
2022/01/10 06:48:35;;;;;;;4.03;2.10;;;20.70;30.50;;;;;;5015635;28;20026;-49
2022/01/10 06:51:01;;;;;;;4.55;2.67;;;20.60;30.40;;;;;;5009562;28;20041;-53
2022/01/10 06:53:27;;;;;;;4.43;2.05;;;20.70;30.40;;;;;;4997863;28;20088;-47
2022/01/10 06:55:55;;;;;;;4.30;2.45;;;20.60;30.40;;;;;;5012989;28;20116;-48
2022/01/10 06:58:21;;;;;;;3.25;2.20;;;20.60;30.40;;;;;;5015063;28;20148;-51
2022/01/10 07:00:48;;;;;;;3.75;2.15;;;20.60;30.40;;;;;;5019435;28;20125;-45
2022/01/10 07:03:14;;;;;;;3.30;2.00;;;20.60;30.40;;;;;;5037592;28;20112;-49
2022/01/10 07:05:48;;;;;;;3.22;2.05;;;20.60;30.40;;;;;;5010673;28;20441;-49
2022/01/10 07:08:16;;;;;;;3.30;2.17;;;20.60;30.40;;;;;;4998560;28;20097;-53
2022/01/10 07:10:54;;;;;;;3.55;2.20;;;20.60;30.40;;;;;;5007526;28;20026;-48
2022/01/10 07:13:21;;;;;;;3.53;2.08;;;20.60;30.40;;;;;;5015849;28;20026;-47
2022/01/10 07:15:48;;;;;;;2.90;1.88;;;20.60;30.40;;;;;;5009948;28;20125;-49
2022/01/10 07:18:14;;;;;;;4.53;2.03;;;20.60;30.40;;;;;;5037551;28;20108;-48
2022/01/10 07:20:45;;;;;;;3.65;2.20;;;20.60;30.40;;;;;;5032313;28;20025;-50
2022/01/10 07:23:11;;;;;;;2.58;1.80;;;20.60;30.40;;;;;;5020630;28;20329;-44
2022/01/10 07:25:37;;;;;;;3.03;2.00;;;20.60;31.10;;;;;;5017517;28;20057;-52
2022/01/10 07:28:06;;;;;;;4.03;2.40;;;20.60;30.50;;;;;;5016060;28;20373;-51
2022/01/10 07:30:32;;;;;;;4.38;2.25;;;20.60;30.60;;;;;;5020145;28;20028;-51
2022/01/10 07:32:58;;;;;;;3.38;1.90;;;20.70;30.70;;;;;;5024749;28;20429;-45
2022/01/10 07:35:24;;;;;;;3.08;2.10;;;20.70;30.70;;;;;;5015987;28;20022;-51
2022/01/10 07:37:50;;;;;;;3.55;2.20;;;20.80;31.30;;;;;;5015725;28;20058;-50
2022/01/10 07:40:15;;;;;;;4.00;2.40;;;20.80;30.70;;;;;;5014166;28;20022;-52
2022/01/10 07:42:41;;;;;;;4.05;2.30;;;20.90;30.60;;;;;;5013771;28;20338;-53
2022/01/10 07:45:10;;;;;;;3.72;2.20;;;21.00;30.60;;;;;;5014724;28;20443;-52
2022/01/10 07:47:37;;;;;;;3.45;2.40;;;21.00;30.40;;;;;;5017489;28;20058;-56
2022/01/10 07:50:04;;;;;;;4.35;2.40;;;21.20;30.40;;;;;;5003341;28;20030;-53
2022/01/10 07:52:30;;;;;;;3.72;2.42;;;21.30;30.20;;;;;;5011518;28;20105;-51
2022/01/10 07:54:56;;;;;;;3.85;2.67;;;21.30;30.10;;;;;;5004589;28;20042;-55
2022/01/10 07:57:22;;;;;;;4.00;2.35;;;21.40;30.00;;;;;;5054204;28;20092;-47
2022/01/10 07:59:47;;;;;;;4.10;2.60;;;21.50;30.00;;;;;;5044549;28;20021;-49
2022/01/10 08:02:14;;;;;;;3.35;2.20;;;21.60;30.00;;;;;;5046305;28;20444;-50
2022/01/10 08:04:41;;;;;;;3.97;2.45;;;21.70;29.90;;;;;;5055121;28;20047;-53
2022/01/10 08:07:06;;;;;;;3.47;2.25;;;21.70;29.80;;;;;;5038726;28;20371;-48
2022/01/10 08:09:34;;;;;;;4.25;2.50;;;21.80;29.80;;;;;;5056548;28;20025;-50
2022/01/10 08:12:00;;;;;;;4.55;2.63;;;21.90;29.70;;;;;;5055871;28;20021;-50
2022/01/10 08:14:30;;;;;;;3.38;2.13;;;22.00;29.70;;;;;;5053948;28;20325;-48
2022/01/10 08:16:56;;;;;;;2.83;2.15;;;22.00;29.60;;;;;;5044284;28;20028;-49
2022/01/10 08:19:22;;;;;;;3.67;2.10;;;22.10;29.50;;;;;;5048700;28;20033;-49
2022/01/10 08:21:48;;;;;;;4.18;2.15;;;22.20;29.50;;;;;;5041815;28;20037;-49
2022/01/10 08:24:14;;;;;;;3.85;2.22;;;22.20;29.40;;;;;;5038919;28;20033;-46
2022/01/10 08:26:40;;;;;;;3.92;2.30;;;22.30;29.30;;;;;;5054028;28;20480;-50
2022/01/10 08:29:07;;;;;;;3.40;2.05;;;22.40;29.30;;;;;;5052863;28;20032;-49
2022/01/10 08:31:34;;;;;;;2.92;1.75;;;22.40;29.20;;;;;;5054185;28;20021;-54
2022/01/10 08:34:03;;;;;;;4.03;2.35;;;22.50;29.20;;;;;;5028309;28;20060;-50
2022/01/10 08:36:29;;;;;;;3.22;2.35;;;22.60;29.20;;;;;;5050398;28;20024;-54
2022/01/10 08:38:56;;;;;;;4.47;2.03;;;22.60;29.10;;;;;;5047671;28;20104;-48
2022/01/10 08:41:22;;;;;;;3.38;1.92;;;22.60;29.10;;;;;;5044097;28;20026;-52
2022/01/10 08:43:48;;;;;;;3.97;2.58;;;22.70;29.10;;;;;;5040114;28;20130;-51
2022/01/10 08:46:13;;;;;;;3.85;2.67;;;22.70;29.10;;;;;;5048546;28;20052;-47
2022/01/10 08:48:40;;;;;;;4.38;2.38;;;22.80;29.10;;;;;;5038740;28;20357;-50
2022/01/10 08:51:06;;;;;;;5.32;3.20;;;22.80;29.00;;;;;;5023165;28;20032;-50
2022/01/10 08:53:33;;;;;;;5.80;3.78;;;22.80;29.00;;;;;;5047608;28;20550;-51
2022/01/10 08:55:59;;;;;;;6.72;4.35;;;22.90;29.00;;;;;;5040933;28;20053;-53
2022/01/10 08:58:27;;;;;;;6.32;4.53;;;22.90;29.00;;;;;;5043690;28;20040;-52
2022/01/10 09:00:53;;;;;;;8.27;4.82;;;23.00;29.00;;;;;;5040728;28;20017;-52
2022/01/10 09:03:18;;;;;;;8.48;6.07;;;23.00;28.90;;;;;;5046614;28;20061;-51
2022/01/10 09:05:44;;;;;;;9.63;6.60;;;23.00;28.90;;;;;;5041370;28;20110;-46
2022/01/10 09:08:10;;;;;;;9.05;6.32;;;23.10;29.00;;;;;;5035399;28;20164;-51
2022/01/10 09:10:37;;;;;;;8.88;6.82;;;23.10;29.00;;;;;;5036608;28;20409;-51
2022/01/10 09:13:02;;;;;;;9.30;7.20;;;23.10;29.00;;;;;;5053437;28;20017;-50
2022/01/10 09:15:28;;;;;;;10.77;7.75;;;23.20;29.00;;;;;;5036778;28;20040;-51
2022/01/10 09:17:54;;;;;;;13.13;9.50;;;23.20;29.00;;;;;;5040701;28;20023;-49
2022/01/10 09:20:20;;;;;;;14.00;9.50;;;23.20;29.10;;;;;;5056335;28;20397;-49
2022/01/10 09:22:46;;;;;;;13.30;9.48;;;23.30;29.10;;;;;;5055239;28;20104;-48
2022/01/10 09:25:12;;;;;;;12.10;9.30;;;23.30;29.60;;;;;;5054667;28;20119;-49
2022/01/10 09:27:38;;;;;;;9.82;8.10;;;23.30;29.10;;;;;;5055705;28;20037;-46
2022/01/10 09:30:04;;;;;;;11.35;8.48;;;23.30;29.10;;;;;;5055425;28;20032;-48
2022/01/10 09:32:30;;;;;;;9.38;7.72;;;23.30;29.00;;;;;;5055469;28;20052;-47
2022/01/10 09:34:56;;;;;;;9.52;7.82;;;23.40;29.00;;;;;;5055239;28;20443;-53
2022/01/10 09:37:23;;;;;;;9.98;7.40;;;23.40;28.90;;;;;;5055222;28;20375;-51
2022/01/10 09:39:48;;;;;;;8.88;7.18;;;23.40;28.90;;;;;;5036683;28;20448;-46
2022/01/10 09:42:15;;;;;;;8.45;6.78;;;23.40;28.90;;;;;;5055220;28;20021;-49
2022/01/10 09:44:41;;;;;;;9.45;7.22;;;23.40;28.90;;;;;;5054635;28;20110;-49
2022/01/10 09:47:07;;;;;;;8.80;6.90;;;23.50;28.90;;;;;;5054660;28;20033;-48
2022/01/10 09:49:32;;;;;;;8.85;6.30;;;23.50;28.90;;;;;;5055318;28;20044;-46
2022/01/10 09:51:58;;;;;;;8.57;6.60;;;23.50;28.90;;;;;;5054887;28;20047;-49
2022/01/10 09:54:24;;;;;;;9.63;6.72;;;23.50;28.90;;;;;;5054797;28;20025;-48
2022/01/10 09:56:50;;;;;;;8.82;6.75;;;23.50;28.90;;;;;;5054360;28;20059;-49
2022/01/10 09:59:17;;;;;;;10.13;7.05;;;23.40;28.90;;;;;;5054812;28;20407;-49
2022/01/10 10:01:45;;;;;;;10.07;6.47;;;23.40;28.90;;;;;;5054406;28;20021;-50
2022/01/10 10:04:11;;;;;;;8.75;6.85;;;23.40;28.90;;;;;;5054328;28;20052;-44
2022/01/10 10:06:37;;;;;;;10.32;7.03;;;23.40;28.90;;;;;;5054348;28;20052;-52
2022/01/10 10:09:08;;;;;;;9.35;6.80;;;23.30;28.90;;;;;;5054239;28;20036;-52
2022/01/10 10:11:38;;;;;;;8.02;6.20;;;23.30;28.90;;;;;;5054339;28;20069;-51
2022/01/10 10:14:05;;;;;;;8.82;6.97;;;23.20;28.90;;;;;;5054100;28;20305;-52
2022/01/10 10:16:35;;;;;;;9.50;7.10;;;23.20;29.00;;;;;;5054590;28;20052;-47
2022/01/10 10:19:01;;;;;;;8.18;6.60;;;23.10;29.00;;;;;;5055341;28;20104;-48
2022/01/10 10:21:27;;;;;;;8.38;6.60;;;23.10;29.00;;;;;;5054560;28;20028;-51
2022/01/10 10:23:53;;;;;;;9.23;6.93;;;23.10;29.10;;;;;;5054398;28;20424;-50
2022/01/10 10:26:23;;;;;;;8.55;6.57;;;23.00;29.00;;;;;;5054086;28;20492;-49
2022/01/10 10:28:51;;;;;;;9.50;7.20;;;23.00;29.10;;;;;;5054413;28;20025;-52
2022/01/10 10:31:29;;;;;;;10.00;8.20;;;23.00;29.10;;;;;;5047648;28;20433;-45
2022/01/10 10:33:55;;;;;;;10.95;7.72;;;23.00;29.10;;;;;;5041576;28;20036;-47
2022/01/10 10:36:22;;;;;;;10.25;7.75;;;22.90;29.70;;;;;;5035422;28;20034;-48
2022/01/10 10:38:50;;;;;;;11.65;8.90;;;22.90;29.30;;;;;;5052541;28;20427;-52
2022/01/10 10:41:16;;;;;;;12.02;8.88;;;22.80;29.40;;;;;;5053535;28;20029;-51
2022/01/10 10:43:43;;;;;;;11.25;8.68;;;22.80;29.50;;;;;;5037032;28;20067;-46
2022/01/10 10:46:15;;;;;;;11.38;8.98;;;22.80;29.60;;;;;;5048256;28;20055;-50
2022/01/10 10:48:43;;;;;;;11.70;8.50;;;22.80;29.60;;;;;;5037231;28;20025;-49
2022/01/10 10:51:10;;;;;;;12.38;9.88;;;22.70;29.60;;;;;;5052929;28;20404;-50
2022/01/10 10:53:36;;;;;;;12.05;9.07;;;22.70;29.60;;;;;;5053948;28;20063;-50
2022/01/10 10:56:04;;;;;;;13.98;10.00;;;22.70;29.60;;;;;;5045138;28;20100;-51
2022/01/10 10:58:31;;;;;;;12.70;9.25;;;22.70;29.60;;;;;;5054411;28;20074;-49
2022/01/10 11:00:58;;;;;;;10.73;8.88;;;22.70;29.60;;;;;;5043081;28;20029;-50
2022/01/10 11:03:25;;;;;;;12.18;9.02;;;22.70;29.60;;;;;;5043896;28;20029;-52
2022/01/10 11:05:57;;;;;;;11.25;8.60;;;22.70;29.60;;;;;;5044934;28;20373;-51
2022/01/10 11:08:26;;;;;;;11.73;9.38;;;22.70;29.60;;;;;;5052825;28;20043;-51
2022/01/10 11:10:53;;;;;;;11.70;9.25;;;22.70;29.60;;;;;;5053942;28;20036;-54
2022/01/10 11:13:21;;;;;;;12.50;9.32;;;22.70;29.60;;;;;;5037779;28;20409;-50
2022/01/10 11:15:47;;;;;;;12.02;8.85;;;22.70;29.60;;;;;;5053139;28;20043;-53
2022/01/10 11:18:15;;;;;;;12.68;9.45;;;22.60;29.60;;;;;;5010064;28;20332;-52
2022/01/10 11:20:43;;;;;;;12.07;9.43;;;22.60;29.60;;;;;;5053702;28;20397;-48
2022/01/10 11:23:10;;;;;;;12.85;9.50;;;22.60;29.60;;;;;;5038674;28;20056;-49
2022/01/10 11:25:39;;;;;;;12.38;9.32;;;22.60;29.60;;;;;;5040416;28;20040;-49
2022/01/10 11:28:23;;;;;;;12.23;9.45;;;22.60;29.70;;;;;;5035185;28;20444;-48
2022/01/10 11:30:51;;;;;;;11.77;9.02;;;22.60;29.70;;;;;;5053985;28;20025;-51
2022/01/10 11:33:22;;;;;;;11.88;8.82;;;22.60;29.70;;;;;;5040088;28;20033;-50
2022/01/10 11:36:03;;;;;;;11.80;8.73;;;22.60;29.70;;;;;;5043038;28;20067;-53
2022/01/10 11:38:38;;;;;;;11.93;8.88;;;22.50;30.20;;;;;;5055007;28;20447;-50
2022/01/10 11:41:10;;;;;;;11.38;8.60;;;22.60;29.80;;;;;;5056717;28;20016;-48
2022/01/10 11:43:40;;;;;;;12.52;9.07;;;22.50;29.80;;;;;;5047286;28;20033;-50
2022/01/10 11:46:37;;;;;;;13.20;9.93;;;22.50;29.80;;;;;;5057267;28;20425;-51
2022/01/10 11:49:13;;;;;;;15.35;10.95;;;22.50;29.80;;;;;;5048571;28;20429;-51
2022/01/10 11:52:06;;;;;;;15.35;11.00;;;22.50;29.90;;;;;;5048416;28;20029;-53
2022/01/10 11:54:35;;;;;;;14.43;10.93;;;22.50;29.90;;;;;;5033263;28;20045;-49
2022/01/10 11:57:06;;;;;;;12.80;10.30;;;22.50;30.00;;;;;;5047058;28;20033;-48
2022/01/10 11:59:37;;;;;;;15.07;11.27;;;22.50;30.00;;;;;;5052471;28;20044;-54
2022/01/10 12:02:10;;;;;;;14.57;10.63;;;22.50;30.00;;;;;;5037698;28;20032;-50
2022/01/10 12:04:47;;;;;;;14.13;11.05;;;22.50;30.00;;;;;;5040614;28;20037;-48
2022/01/10 12:07:16;;;;;;;15.77;11.05;;;22.50;30.00;;;;;;5049861;28;20037;-47
2022/01/10 12:09:42;;;;;;;11.98;10.60;;;22.40;30.00;;;;;;5057292;28;20455;-47
2022/01/10 12:12:10;;;;;;;13.27;11.20;;;22.50;30.00;;;;;;5055739;28;20021;-50
2022/01/10 12:14:36;;;;;;;12.45;9.80;;;22.40;30.00;;;;;;5056770;28;20118;-52
2022/01/10 12:17:03;;;;;;;13.25;10.07;;;22.40;30.00;;;;;;5054262;28;20031;-51
2022/01/10 12:19:29;;;;;;;12.27;9.60;;;22.50;30.00;;;;;;5055511;28;20020;-53
2022/01/10 12:21:56;;;;;;;12.98;10.10;;;22.50;30.20;;;;;;5056991;28;20021;-51
2022/01/10 12:24:22;;;;;;;12.57;9.85;;;22.50;30.80;;;;;;5050779;28;20029;-50
2022/01/10 12:26:48;;;;;;;14.60;11.15;;;22.50;30.20;;;;;;5038903;28;20037;-52
2022/01/10 12:29:16;;;;;;;13.90;10.60;;;22.50;30.20;;;;;;5053195;28;20025;-50
2022/01/10 12:31:44;;;;;;;12.90;9.43;;;22.50;30.30;;;;;;5047462;28;20079;-50
2022/01/10 12:34:13;;;;;;;15.07;11.02;;;22.50;30.30;;;;;;5043845;28;20032;-50
2022/01/10 12:36:40;;;;;;;15.02;10.50;;;22.50;30.30;;;;;;5044396;28;20082;-47
2022/01/10 12:39:11;;;;;;;12.63;9.77;;;22.50;30.30;;;;;;5043011;28;20116;-48
2022/01/10 12:41:37;;;;;;;12.63;9.32;;;22.50;30.20;;;;;;5055286;28;20021;-47
2022/01/10 12:44:03;;;;;;;13.23;10.20;;;22.50;30.90;;;;;;5055200;28;20047;-49
2022/01/10 12:46:32;;;;;;;13.52;9.70;;;22.50;30.20;;;;;;5045546;28;20040;-48
2022/01/10 12:49:04;;;;;;;13.48;9.77;;;22.50;30.20;;;;;;5056486;28;20032;-53
2022/01/10 12:51:51;;;;;;;12.70;9.25;;;22.50;30.10;;;;;;5046257;28;20079;-51
2022/01/10 12:54:21;;;;;;;13.32;9.65;;;22.50;30.10;;;;;;5055829;28;20024;-53
2022/01/10 12:56:48;;;;;;;11.25;8.23;;;22.40;30.10;;;;;;5047015;28;20128;-47
2022/01/10 12:59:16;;;;;;;10.48;8.30;;;22.50;30.20;;;;;;5056257;28;20025;-49